Time;durP1;ratioP1;P1;durP2;ratioP2;P2;SDS_P1;SDS_P2;PMS_P1;PMS_P2;Temp;Humidity;BMP_temperature;BMP_pressure;BME280_temperature;BME280_humidity;BME280_pressure;Samples;Min_cycle;Max_cycle;Signal;HPM_P1;HPM_P2
2024/04/18 00:01:00;;;;;;;4.80;2.23;;;;;;;;;;5505288;26;20231;-55
2024/04/18 00:03:25;;;;;;;7.32;1.98;;;;;;;;;;5502655;26;19998;-56
2024/04/18 00:05:51;;;;;;;3.57;1.83;;;;;;;;;;5504656;26;20017;-58
2024/04/18 00:08:19;;;;;;;4.43;1.63;;;;;;;;;;5503806;26;20227;-56
2024/04/18 00:10:45;;;;;;;2.10;1.53;;;;;;;;;;5504544;26;20047;-58
2024/04/18 00:13:30;;;;;;;4.05;2.15;;;;;;;;;;5503353;26;20883;-59
2024/04/18 00:16:02;;;;;;;4.78;1.92;;;;;;;;;;5505486;26;20054;-57
2024/04/18 00:18:33;;;;;;;4.07;2.28;;;;;;;;;;5505153;26;20030;-55
2024/04/18 00:21:18;;;;;;;3.28;2.03;;;;;;;;;;5505011;26;19995;-58
2024/04/18 00:23:52;;;;;;;3.33;2.00;;;;;;;;;;5503223;26;20018;-59
2024/04/18 00:26:37;;;;;;;5.03;2.00;;;;;;;;;;5502243;26;20006;-59
2024/04/18 00:29:03;;;;;;;2.83;1.60;;;;;;;;;;5504761;26;20002;-58
2024/04/18 00:31:33;;;;;;;2.53;1.80;;;;;;;;;;5504010;26;20089;-57
2024/04/18 00:33:59;;;;;;;2.87;1.50;;;;;;;;;;5504827;26;19998;-55
2024/04/18 00:36:27;;;;;;;5.20;2.28;;;;;;;;;;5504941;26;20013;-57
2024/04/18 00:38:52;;;;;;;2.30;1.70;;;;;;;;;;5505802;26;20006;-57
2024/04/18 00:41:21;;;;;;;5.68;1.90;;;;;;;;;;5503583;26;19998;-59
2024/04/18 00:43:56;;;;;;;4.72;2.20;;;;;;;;;;5503883;26;20002;-59
2024/04/18 00:46:30;;;;;;;3.47;1.77;;;;;;;;;;5503981;26;20006;-58
2024/04/18 00:48:55;;;;;;;3.33;1.40;;;;;;;;;;5492823;26;20057;-58
2024/04/18 00:51:21;;;;;;;6.25;2.55;;;;;;;;;;5492803;26;19994;-57
2024/04/18 00:53:49;;;;;;;6.03;2.10;;;;;;;;;;5485878;26;20041;-56
2024/04/18 00:56:24;;;;;;;5.00;2.17;;;;;;;;;;5489608;26;20016;-56
2024/04/18 00:59:10;;;;;;;3.22;1.80;;;;;;;;;;5482955;26;20011;-56
2024/04/18 01:01:36;;;;;;;3.25;2.13;;;;;;;;;;5489515;26;20010;-59
2024/04/18 01:04:01;;;;;;;8.00;2.07;;;;;;;;;;5488406;26;20006;-56
2024/04/18 01:06:40;;;;;;;5.43;2.53;;;;;;;;;;5491882;26;20275;-57
2024/04/18 01:09:13;;;;;;;2.72;2.08;;;;;;;;;;5498489;26;20002;-58
2024/04/18 01:11:58;;;;;;;4.53;2.13;;;;;;;;;;5487309;26;20018;-57
2024/04/18 01:14:24;;;;;;;3.00;1.88;;;;;;;;;;5485372;26;20056;-57
2024/04/18 01:17:03;;;;;;;4.10;2.35;;;;;;;;;;5493556;26;20018;-57
2024/04/18 01:19:28;;;;;;;8.43;2.40;;;;;;;;;;5488441;26;20020;-57
2024/04/18 01:21:53;;;;;;;6.57;2.33;;;;;;;;;;5487703;26;20010;-57
2024/04/18 01:24:19;;;;;;;3.58;2.03;;;;;;;;;;5487096;26;20010;-58
2024/04/18 01:26:45;;;;;;;3.95;2.22;;;;;;;;;;5489434;26;20008;-58
2024/04/18 01:29:12;;;;;;;4.05;2.05;;;;;;;;;;5489872;26;20033;-58
2024/04/18 01:31:57;;;;;;;6.63;2.38;;;;;;;;;;5494328;26;20001;-58
2024/04/18 01:34:22;;;;;;;4.37;2.60;;;;;;;;;;5493023;26;19998;-59
2024/04/18 01:36:48;;;;;;;3.93;2.10;;;;;;;;;;5487681;26;19999;-58
2024/04/18 01:39:26;;;;;;;6.85;2.30;;;;;;;;;;5491470;26;20020;-59
2024/04/18 01:42:02;;;;;;;4.28;2.28;;;;;;;;;;5484535;26;20017;-58
2024/04/18 01:44:44;;;;;;;4.18;2.05;;;;;;;;;;5485752;26;21383;-55
2024/04/18 01:47:28;;;;;;;5.40;2.05;;;;;;;;;;5489668;26;20009;-57
2024/04/18 01:50:06;;;;;;;8.73;2.20;;;;;;;;;;5485599;26;20005;-58
2024/04/18 01:52:32;;;;;;;7.45;2.25;;;;;;;;;;5494079;26;20007;-56
2024/04/18 01:55:03;;;;;;;3.80;2.35;;;;;;;;;;5493718;26;20035;-53
2024/04/18 01:57:35;;;;;;;5.38;2.13;;;;;;;;;;5482406;26;20026;-57
2024/04/18 02:00:20;;;;;;;5.22;2.25;;;;;;;;;;5493385;26;20078;-60
2024/04/18 02:02:46;;;;;;;3.47;2.17;;;;;;;;;;5496220;26;20017;-58
2024/04/18 02:05:31;;;;;;;8.40;2.17;;;;;;;;;;5484231;26;20033;-56
2024/04/18 02:08:12;;;;;;;6.15;2.53;;;;;;;;;;5489121;26;20042;-59
2024/04/18 02:10:43;;;;;;;5.55;2.00;;;;;;;;;;5491060;26;20010;-57
2024/04/18 02:13:28;;;;;;;3.15;2.03;;;;;;;;;;5492287;26;19998;-55
2024/04/18 02:15:53;;;;;;;5.17;2.17;;;;;;;;;;5495301;26;20120;-58
2024/04/18 02:18:20;;;;;;;5.43;2.10;;;;;;;;;;5485143;26;20002;-59
2024/04/18 02:20:45;;;;;;;5.43;2.00;;;;;;;;;;5486113;26;20018;-56
2024/04/18 02:23:22;;;;;;;7.43;2.13;;;;;;;;;;5487025;26;20003;-58
2024/04/18 02:25:48;;;;;;;5.85;2.25;;;;;;;;;;5489124;26;20075;-55
2024/04/18 02:28:13;;;;;;;4.90;1.88;;;;;;;;;;5494881;26;20010;-59
2024/04/18 02:30:39;;;;;;;5.13;2.10;;;;;;;;;;5486952;26;20111;-56
2024/04/18 02:33:12;;;;;;;5.50;2.13;;;;;;;;;;5490539;26;19999;-58
2024/04/18 02:35:44;;;;;;;4.03;1.58;;;;;;;;;;5491289;26;20010;-56
2024/04/18 02:38:30;;;;;;;4.63;2.25;;;;;;;;;;5492775;26;19999;-57
2024/04/18 02:41:05;;;;;;;6.27;2.23;;;;;;;;;;5486849;26;20012;-58
2024/04/18 02:43:48;;;;;;;3.75;1.88;;;;;;;;;;5489797;26;20030;-59
2024/04/18 02:46:14;;;;;;;5.88;2.30;;;;;;;;;;5483638;26;20556;-59
2024/04/18 02:48:40;;;;;;;4.22;2.00;;;;;;;;;;5488348;26;19998;-56
2024/04/18 02:51:22;;;;;;;6.93;2.40;;;;;;;;;;5486801;26;20013;-56
2024/04/18 02:54:07;;;;;;;3.83;1.98;;;;;;;;;;5497546;26;20013;-58
2024/04/18 02:56:33;;;;;;;8.80;2.50;;;;;;;;;;5501812;26;20013;-57
2024/04/18 02:59:10;;;;;;;4.75;2.00;;;;;;;;;;5498353;26;20017;-57
2024/04/18 03:01:50;;;;;;;8.18;2.70;;;;;;;;;;5497899;26;20067;-55
2024/04/18 03:04:46;;;;;;;6.53;2.53;;;;;;;;;;5527123;26;20042;-59
2024/04/18 03:07:22;;;;;;;5.30;2.03;;;;;;;;;;5496817;26;20049;-59
2024/04/18 03:09:47;;;;;;;7.87;2.30;;;;;;;;;;5485886;26;19995;-53
2024/04/18 03:12:25;;;;;;;5.38;2.42;;;;;;;;;;5484306;26;20236;-58
2024/04/18 03:15:08;;;;;;;5.95;2.38;;;;;;;;;;5486197;26;20321;-57
2024/04/18 03:17:54;;;;;;;13.18;2.70;;;;;;;;;;5489803;26;20013;-58
2024/04/18 03:20:53;;;;;;;6.00;2.53;;;;;;;;;;5487022;26;20049;-58
2024/04/18 03:23:18;;;;;;;5.53;2.35;;;;;;;;;;5491964;26;20013;-59
2024/04/18 03:26:01;;;;;;;5.57;2.17;;;;;;;;;;5485980;26;19995;-58
2024/04/18 03:28:27;;;;;;;4.50;2.47;;;;;;;;;;5496504;26;20014;-57
2024/04/18 03:30:52;;;;;;;4.83;2.20;;;;;;;;;;5496578;26;20010;-57
2024/04/18 03:33:18;;;;;;;5.40;2.28;;;;;;;;;;5499595;26;20002;-57
2024/04/18 03:35:43;;;;;;;6.93;2.30;;;;;;;;;;5494064;26;20047;-58
2024/04/18 03:38:15;;;;;;;5.65;2.10;;;;;;;;;;5493092;26;20260;-57
2024/04/18 03:40:40;;;;;;;6.07;2.27;;;;;;;;;;5487713;26;19999;-54
2024/04/18 03:43:06;;;;;;;7.95;2.53;;;;;;;;;;5487388;26;20010;-58
2024/04/18 03:45:31;;;;;;;7.63;2.60;;;;;;;;;;5494344;26;20013;-58
2024/04/18 03:48:15;;;;;;;4.30;2.50;;;;;;;;;;5487308;26;20337;-58
2024/04/18 03:50:44;;;;;;;5.03;1.95;;;;;;;;;;5496358;26;20006;-54
2024/04/18 03:53:19;;;;;;;7.05;2.47;;;;;;;;;;5491702;26;20028;-56
2024/04/18 03:55:44;;;;;;;6.38;2.50;;;;;;;;;;5492484;26;20006;-56
2024/04/18 03:58:09;;;;;;;3.97;2.43;;;;;;;;;;5490102;26;20008;-56
2024/04/18 04:00:48;;;;;;;6.65;2.63;;;;;;;;;;5487955;26;20002;-54
2024/04/18 04:03:13;;;;;;;4.38;2.40;;;;;;;;;;5496163;26;20003;-60
2024/04/18 04:05:40;;;;;;;4.38;2.63;;;;;;;;;;5491753;26;20002;-56
2024/04/18 04:08:05;;;;;;;5.45;2.95;;;;;;;;;;5493820;26;20014;-57
2024/04/18 04:10:37;;;;;;;7.13;2.00;;;;;;;;;;5495783;26;20026;-59
2024/04/18 04:13:03;;;;;;;9.68;2.60;;;;;;;;;;5501575;26;20006;-55
2024/04/18 04:15:40;;;;;;;;;;;;;;;;;;5500197;26;20024;-57
2024/04/18 04:18:05;;;;;;;6.17;2.37;;;;;;;;;;5495209;26;19924;-56
2024/04/18 04:20:40;;;;;;;6.50;2.13;;;;;;;;;;5486530;26;20005;-58
2024/04/18 04:23:07;;;;;;;4.43;2.17;;;;;;;;;;5495246;26;19999;-58
2024/04/18 04:25:53;;;;;;;10.95;2.30;;;;;;;;;;5492044;26;20051;-58
2024/04/18 04:28:18;;;;;;;6.43;2.70;;;;;;;;;;5496002;26;19998;-56
2024/04/18 04:30:43;;;;;;;10.53;2.53;;;;;;;;;;5482537;26;20013;-59
2024/04/18 04:33:09;;;;;;;4.80;2.75;;;;;;;;;;5485358;26;20462;-53
2024/04/18 04:35:34;;;;;;;4.68;2.38;;;;;;;;;;5486790;26;20003;-55
2024/04/18 04:38:00;;;;;;;6.43;2.70;;;;;;;;;;5493899;26;19998;-56
2024/04/18 04:40:31;;;;;;;3.78;2.30;;;;;;;;;;5486609;26;20236;-58
2024/04/18 04:42:56;;;;;;;6.47;2.80;;;;;;;;;;5504747;26;20009;-58
2024/04/18 04:45:22;;;;;;;11.33;2.87;;;;;;;;;;5504810;26;19999;-57
2024/04/18 04:48:03;;;;;;;13.00;3.00;;;;;;;;;;5503528;26;20023;-56
2024/04/18 04:50:29;;;;;;;6.45;2.40;;;;;;;;;;5498343;26;20003;-57
2024/04/18 04:53:26;;;;;;;6.38;2.53;;;;;;;;;;5490380;26;20013;-57
2024/04/18 04:55:58;;;;;;;5.97;2.40;;;;;;;;;;5499437;26;20017;-58
2024/04/18 04:58:24;;;;;;;7.57;2.53;;;;;;;;;;5501585;26;20007;-54
2024/04/18 05:00:50;;;;;;;8.93;3.08;;;;;;;;;;5501122;26;20091;-58
2024/04/18 05:03:34;;;;;;;10.65;2.30;;;;;;;;;;5496829;26;20013;-56
2024/04/18 05:06:20;;;;;;;7.32;2.75;;;;;;;;;;5497228;26;20013;-57
2024/04/18 05:09:06;;;;;;;11.25;3.67;;;;;;;;;;5502401;26;20010;-57
2024/04/18 05:11:31;;;;;;;6.23;2.80;;;;;;;;;;5503925;26;20009;-57
2024/04/18 05:13:57;;;;;;;6.40;3.47;;;;;;;;;;5496388;26;19994;-56
2024/04/18 05:16:42;;;;;;;7.35;3.42;;;;;;;;;;5500195;26;19998;-58
2024/04/18 05:19:11;;;;;;;10.65;3.15;;;;;;;;;;5501980;26;20056;-58
2024/04/18 05:21:36;;;;;;;6.32;3.25;;;;;;;;;;5489748;26;20010;-57
2024/04/18 05:24:21;;;;;;;11.68;3.53;;;;;;;;;;5490978;26;20017;-55
2024/04/18 05:26:46;;;;;;;11.47;3.93;;;;;;;;;;5490815;26;20023;-59
2024/04/18 05:31:57;;;;;;;8.65;3.45;;;;;;;;;;5485828;26;20005;-56
2024/04/18 05:34:23;;;;;;;13.63;3.38;;;;;;;;;;5482490;26;19991;-57
2024/04/18 05:36:48;;;;;;;11.17;3.70;;;;;;;;;;5491083;26;20017;-56
2024/04/18 05:39:14;;;;;;;7.05;3.30;;;;;;;;;;5492748;26;19995;-55
2024/04/18 05:41:39;;;;;;;7.40;3.37;;;;;;;;;;5486373;26;20080;-57
2024/04/18 05:44:25;;;;;;;10.77;3.85;;;;;;;;;;5490965;26;20314;-56
2024/04/18 05:46:50;;;;;;;7.70;3.40;;;;;;;;;;5491457;26;20002;-56
2024/04/18 05:49:16;;;;;;;9.07;3.83;;;;;;;;;;5488076;26;20041;-57
2024/04/18 05:51:41;;;;;;;9.18;3.85;;;;;;;;;;5488530;26;20012;-57
2024/04/18 05:54:25;;;;;;;9.70;3.80;;;;;;;;;;5488462;26;20059;-55
2024/04/18 05:57:04;;;;;;;8.63;3.83;;;;;;;;;;5484753;26;20025;-58
2024/04/18 05:59:48;;;;;;;11.10;4.57;;;;;;;;;;5483851;26;20010;-55
2024/04/18 06:02:13;;;;;;;10.23;4.47;;;;;;;;;;5491298;26;19994;-58
2024/04/18 06:04:41;;;;;;;8.65;4.50;;;;;;;;;;5491729;26;20003;-55
2024/04/18 06:07:26;;;;;;;7.53;3.90;;;;;;;;;;5494556;26;20354;-57
2024/04/18 06:09:51;;;;;;;7.95;3.42;;;;;;;;;;5500618;26;19998;-56
2024/04/18 06:12:17;;;;;;;11.98;5.28;;;;;;;;;;5500939;26;20009;-58
2024/04/18 06:14:42;;;;;;;9.20;4.43;;;;;;;;;;5493355;26;20002;-54
2024/04/18 06:17:08;;;;;;;10.38;4.53;;;;;;;;;;5490037;26;19999;-56
2024/04/18 06:19:49;;;;;;;13.07;4.45;;;;;;;;;;5490816;26;20057;-54
2024/04/18 06:22:27;;;;;;;11.15;4.45;;;;;;;;;;5488121;26;20013;-57
2024/04/18 06:25:13;;;;;;;8.00;3.38;;;;;;;;;;5490537;26;19995;-58
2024/04/18 06:27:39;;;;;;;6.53;3.40;;;;;;;;;;5489263;26;20055;-56
2024/04/18 06:30:04;;;;;;;12.77;4.03;;;;;;;;;;5485713;26;20020;-59
2024/04/18 06:32:30;;;;;;;8.27;3.38;;;;;;;;;;5491621;26;19998;-57
2024/04/18 06:34:55;;;;;;;7.47;3.40;;;;;;;;;;5501588;26;20006;-58
2024/04/18 06:37:21;;;;;;;10.35;3.45;;;;;;;;;;5494209;26;19995;-55
2024/04/18 06:39:46;;;;;;;4.90;3.00;;;;;;;;;;5498778;26;20010;-58
2024/04/18 06:42:12;;;;;;;8.37;3.57;;;;;;;;;;5509060;26;20227;-57
2024/04/18 06:44:37;;;;;;;8.43;3.13;;;;;;;;;;5508854;26;20031;-56
2024/04/18 06:47:03;;;;;;;6.30;2.73;;;;;;;;;;5507902;26;20322;-58
2024/04/18 06:49:28;;;;;;;10.20;2.67;;;;;;;;;;5508446;26;20231;-55
2024/04/18 06:51:54;;;;;;;6.13;2.77;;;;;;;;;;5508584;26;20006;-60
2024/04/18 06:54:19;;;;;;;5.88;2.80;;;;;;;;;;5507452;26;20018;-57
2024/04/18 06:56:45;;;;;;;7.57;2.30;;;;;;;;;;5508387;26;20002;-59
2024/04/18 06:59:10;;;;;;;6.20;2.35;;;;;;;;;;5507678;26;20013;-55
2024/04/18 07:01:39;;;;;;;7.18;3.08;;;;;;;;;;5507701;26;20017;-57
2024/04/18 07:04:04;;;;;;;10.57;2.83;;;;;;;;;;5509015;26;20006;-57
2024/04/18 07:06:30;;;;;;;6.78;2.60;;;;;;;;;;5508108;26;20453;-53
2024/04/18 07:09:02;;;;;;;3.05;1.77;;;;;;;;;;5507185;26;20016;-55
2024/04/18 07:11:40;;;;;;;11.75;2.60;;;;;;;;;;5508689;26;20006;-55
2024/04/18 07:14:07;;;;;;;5.45;1.60;;;;;;;;;;5508951;26;20015;-58
2024/04/18 07:16:33;;;;;;;7.55;2.05;;;;;;;;;;5508682;26;19994;-58
2024/04/18 07:19:18;;;;;;;5.80;1.63;;;;;;;;;;5488059;26;20013;-58
2024/04/18 07:21:52;;;;;;;4.28;1.80;;;;;;;;;;5512065;26;20017;-59
2024/04/18 07:24:18;;;;;;;4.80;2.07;;;;;;;;;;5512644;26;19995;-58
2024/04/18 07:26:44;;;;;;;4.30;1.40;;;;;;;;;;5512196;26;20006;-59
2024/04/18 07:29:10;;;;;;;5.68;1.58;;;;;;;;;;5512026;26;20012;-58
2024/04/18 07:31:35;;;;;;;4.40;1.73;;;;;;;;;;5510707;26;20021;-57
2024/04/18 07:34:13;;;;;;;3.92;1.23;;;;;;;;;;5512694;26;20002;-57
2024/04/18 07:36:39;;;;;;;4.32;1.20;;;;;;;;;;5511938;26;19998;-59
2024/04/18 07:39:05;;;;;;;3.47;1.10;;;;;;;;;;5511581;26;20102;-59
2024/04/18 07:41:31;;;;;;;3.07;1.30;;;;;;;;;;5511644;26;20036;-58
2024/04/18 07:43:56;;;;;;;1.43;1.07;;;;;;;;;;5511852;26;20305;-58
2024/04/18 07:46:26;;;;;;;4.73;1.40;;;;;;;;;;5511709;26;20258;-56
2024/04/18 07:48:52;;;;;;;3.50;1.13;;;;;;;;;;5511719;26;20283;-58
2024/04/18 07:51:17;;;;;;;2.72;1.23;;;;;;;;;;5511859;26;20235;-57
2024/04/18 07:53:42;;;;;;;4.33;1.23;;;;;;;;;;5511715;26;20064;-54
2024/04/18 07:56:08;;;;;;;4.20;1.20;;;;;;;;;;5511490;26;20509;-56
2024/04/18 07:58:34;;;;;;;4.15;1.83;;;;;;;;;;5511755;26;20034;-58
2024/04/18 08:01:00;;;;;;;4.03;1.25;;;;;;;;;;5511833;26;20413;-58
2024/04/18 08:03:25;;;;;;;4.72;1.40;;;;;;;;;;5508727;26;20006;-56
2024/04/18 08:05:51;;;;;;;5.35;1.70;;;;;;;;;;5512351;26;19991;-56
2024/04/18 08:08:17;;;;;;;4.07;1.00;;;;;;;;;;5511437;26;20005;-58
2024/04/18 08:10:44;;;;;;;1.98;1.02;;;;;;;;;;5511254;26;19994;-59
2024/04/18 08:13:10;;;;;;;4.77;1.30;;;;;;;;;;5511540;26;20051;-57
2024/04/18 08:15:43;;;;;;;6.80;1.17;;;;;;;;;;5511266;26;20238;-55
2024/04/18 08:18:09;;;;;;;5.17;1.30;;;;;;;;;;5511153;26;20013;-57
2024/04/18 08:20:34;;;;;;;6.55;1.70;;;;;;;;;;5511158;26;20247;-55
2024/04/18 08:23:00;;;;;;;1.15;0.90;;;;;;;;;;5497309;26;19994;-57
2024/04/18 08:25:25;;;;;;;1.33;0.93;;;;;;;;;;5511300;26;19994;-57
2024/04/18 08:27:52;;;;;;;4.80;1.40;;;;;;;;;;5509035;26;20039;-58
2024/04/18 08:30:17;;;;;;;;;;;;;;;;;;5511252;26;19998;-57
2024/04/18 08:32:43;;;;;;;4.90;0.83;;;;;;;;;;5509383;26;19931;-56
2024/04/18 08:35:08;;;;;;;4.70;1.10;;;;;;;;;;5511147;26;20099;-58
2024/04/18 08:37:34;;;;;;;2.07;0.87;;;;;;;;;;5511363;26;20002;-57
2024/04/18 08:39:59;;;;;;;6.10;1.27;;;;;;;;;;5510293;26;20035;-57
2024/04/18 08:42:26;;;;;;;3.38;1.48;;;;;;;;;;5507525;26;19998;-58
2024/04/18 08:44:55;;;;;;;2.58;1.10;;;;;;;;;;5508254;26;20017;-56
2024/04/18 08:47:31;;;;;;;2.00;1.10;;;;;;;;;;5510733;26;20010;-57
2024/04/18 08:49:57;;;;;;;2.22;1.40;;;;;;;;;;5510632;26;20231;-56
2024/04/18 08:52:22;;;;;;;3.70;1.30;;;;;;;;;;5509757;26;20013;-57
2024/04/18 08:54:47;;;;;;;3.07;1.63;;;;;;;;;;5511452;26;19994;-58
2024/04/18 08:57:20;;;;;;;1.50;1.08;;;;;;;;;;5511934;26;20047;-57
2024/04/18 08:59:46;;;;;;;3.47;1.07;;;;;;;;;;5500815;26;19990;-56
2024/04/18 09:02:15;;;;;;;5.70;0.80;;;;;;;;;;5510975;26;20235;-52
2024/04/18 09:04:41;;;;;;;2.03;0.80;;;;;;;;;;5509992;26;20227;-58
2024/04/18 09:07:07;;;;;;;2.22;0.90;;;;;;;;;;5511134;26;20047;-58
2024/04/18 09:09:32;;;;;;;4.07;1.23;;;;;;;;;;5510220;26;20013;-59
2024/04/18 09:11:59;;;;;;;2.20;0.87;;;;;;;;;;5510921;26;20009;-59
2024/04/18 09:14:28;;;;;;;3.43;0.80;;;;;;;;;;5510302;26;20279;-55
2024/04/18 09:16:53;;;;;;;2.53;0.90;;;;;;;;;;5510790;26;20272;-56
2024/04/18 09:19:19;;;;;;;2.07;0.97;;;;;;;;;;5510448;26;20231;-58
2024/04/18 09:21:44;;;;;;;2.37;0.90;;;;;;;;;;5510573;26;19997;-56
2024/04/18 09:24:10;;;;;;;1.33;0.80;;;;;;;;;;5510148;26;20021;-57
2024/04/18 09:26:36;;;;;;;2.35;0.95;;;;;;;;;;5510712;26;20009;-56
2024/04/18 09:29:02;;;;;;;4.63;1.10;;;;;;;;;;5509679;26;20009;-57
2024/04/18 09:31:29;;;;;;;3.70;1.10;;;;;;;;;;5510079;26;20014;-58
2024/04/18 09:33:54;;;;;;;3.50;0.77;;;;;;;;;;5510370;26;19995;-58
2024/04/18 09:36:20;;;;;;;2.55;0.82;;;;;;;;;;5510479;26;19994;-59
2024/04/18 09:38:47;;;;;;;2.97;0.73;;;;;;;;;;5508746;26;20006;-59
2024/04/18 09:41:14;;;;;;;0.77;0.40;;;;;;;;;;5509514;26;20025;-57
2024/04/18 09:43:42;;;;;;;1.83;0.53;;;;;;;;;;5501802;26;20018;-58
2024/04/18 09:46:09;;;;;;;3.53;0.70;;;;;;;;;;5499387;26;20051;-56
2024/04/18 09:48:35;;;;;;;3.27;0.97;;;;;;;;;;5509218;26;19998;-58
2024/04/18 09:51:00;;;;;;;;;;;;;;;;;;5510585;26;20008;-58
2024/04/18 09:53:27;;;;;;;3.13;1.20;;;;;;;;;;5509995;26;19924;-59
2024/04/18 09:55:53;;;;;;;1.77;0.70;;;;;;;;;;5509728;26;19994;-58
2024/04/18 09:58:19;;;;;;;1.77;0.97;;;;;;;;;;5510199;26;19998;-58
2024/04/18 10:00:45;;;;;;;3.67;0.90;;;;;;;;;;5509131;26;20009;-56
2024/04/18 10:03:11;;;;;;;;;;;;;;;;;;5509664;26;20017;-60
2024/04/18 10:05:39;;;;;;;2.50;0.43;;;;;;;;;;5509432;26;19924;-58
2024/04/18 10:08:06;;;;;;;4.43;1.07;;;;;;;;;;5509349;26;20013;-58
2024/04/18 10:10:32;;;;;;;2.37;0.80;;;;;;;;;;5509204;26;20006;-58
2024/04/18 10:12:59;;;;;;;2.90;1.23;;;;;;;;;;5509786;26;20013;-59
2024/04/18 10:15:25;;;;;;;3.10;0.57;;;;;;;;;;5509481;26;20002;-58
2024/04/18 10:17:50;;;;;;;2.97;0.80;;;;;;;;;;5509857;26;19998;-57
2024/04/18 10:20:16;;;;;;;2.90;0.90;;;;;;;;;;5509034;26;20006;-58
2024/04/18 10:22:41;;;;;;;2.20;0.80;;;;;;;;;;5510045;26;20055;-58
2024/04/18 10:25:20;;;;;;;2.38;0.98;;;;;;;;;;5509300;26;20016;-58
2024/04/18 10:27:45;;;;;;;3.90;1.10;;;;;;;;;;5509304;26;20013;-57
2024/04/18 10:30:16;;;;;;;1.73;0.70;;;;;;;;;;5508763;26;20014;-59
2024/04/18 10:32:42;;;;;;;2.90;0.80;;;;;;;;;;5509065;26;19986;-56
2024/04/18 10:35:08;;;;;;;2.80;0.83;;;;;;;;;;5509334;26;20009;-58
2024/04/18 10:37:33;;;;;;;3.28;1.00;;;;;;;;;;5509457;26;20003;-58
2024/04/18 10:39:59;;;;;;;;;;;;;;;;;;5509102;26;20012;-58
2024/04/18 10:42:24;;;;;;;4.57;1.88;;;;;;;;;;5509321;26;19930;-58
2024/04/18 10:44:50;;;;;;;0.80;0.65;;;;;;;;;;5508971;26;20006;-57
2024/04/18 10:47:20;;;;;;;1.55;0.80;;;;;;;;;;5509213;26;20051;-57
2024/04/18 10:49:46;;;;;;;7.28;1.10;;;;;;;;;;5507860;26;20048;-58
2024/04/18 10:52:15;;;;;;;3.65;0.70;;;;;;;;;;5508792;26;20024;-56
2024/04/18 10:54:40;;;;;;;4.25;1.05;;;;;;;;;;5508153;26;19994;-57
2024/04/18 10:57:07;;;;;;;1.80;0.80;;;;;;;;;;5513064;26;20079;-58
2024/04/18 10:59:43;;;;;;;3.20;0.90;;;;;;;;;;5510102;26;20005;-59
2024/04/18 11:02:10;;;;;;;2.47;0.75;;;;;;;;;;5511915;26;19998;-58
2024/04/18 11:04:35;;;;;;;6.15;1.20;;;;;;;;;;5509744;26;20014;-58
2024/04/18 11:07:01;;;;;;;4.20;0.95;;;;;;;;;;5511405;26;19998;-60
2024/04/18 11:09:26;;;;;;;3.08;0.70;;;;;;;;;;5511744;26;20018;-60
2024/04/18 11:11:52;;;;;;;4.55;1.02;;;;;;;;;;5512569;26;20010;-59
2024/04/18 11:14:17;;;;;;;3.03;0.70;;;;;;;;;;5511842;26;19994;-58
2024/04/18 11:16:46;;;;;;;6.03;1.00;;;;;;;;;;5511484;26;19998;-59
2024/04/18 11:19:13;;;;;;;4.18;1.10;;;;;;;;;;5512294;26;19998;-57
2024/04/18 11:21:39;;;;;;;4.40;0.90;;;;;;;;;;5511682;26;20010;-59
2024/04/18 11:24:08;;;;;;;3.03;1.20;;;;;;;;;;5511881;26;19994;-59
2024/04/18 11:26:36;;;;;;;2.67;1.02;;;;;;;;;;5511520;26;20008;-58
2024/04/18 11:29:02;;;;;;;3.92;1.00;;;;;;;;;;5511806;26;20051;-58
2024/04/18 11:31:27;;;;;;;3.85;0.90;;;;;;;;;;5511515;26;20009;-59
2024/04/18 11:33:55;;;;;;;6.25;0.93;;;;;;;;;;5512034;26;20124;-60
2024/04/18 11:36:20;;;;;;;3.90;1.00;;;;;;;;;;5511633;26;19998;-57
2024/04/18 11:38:47;;;;;;;4.20;1.00;;;;;;;;;;5512219;26;19994;-60
2024/04/18 11:41:12;;;;;;;4.65;1.13;;;;;;;;;;5511013;26;20002;-59
2024/04/18 11:43:38;;;;;;;4.00;0.93;;;;;;;;;;5511940;26;20017;-55
2024/04/18 11:46:03;;;;;;;3.80;1.10;;;;;;;;;;5510695;26;20027;-57
2024/04/18 11:48:29;;;;;;;3.00;0.98;;;;;;;;;;5510326;26;20002;-58
2024/04/18 11:50:54;;;;;;;3.72;1.27;;;;;;;;;;5510962;26;19998;-59
2024/04/18 11:53:20;;;;;;;3.05;0.80;;;;;;;;;;5511307;26;20051;-58
2024/04/18 11:55:45;;;;;;;;;;;;;;;;;;5511222;26;20008;-56
2024/04/18 11:58:26;;;;;;;5.27;1.07;;;;;;;;;;5510961;26;19931;-55
2024/04/18 12:00:52;;;;;;;5.25;1.27;;;;;;;;;;5511274;26;19990;-58
2024/04/18 12:03:36;;;;;;;3.40;1.20;;;;;;;;;;5511224;26;20078;-56
2024/04/18 12:06:21;;;;;;;5.30;1.10;;;;;;;;;;5509789;26;20040;-58
2024/04/18 12:08:50;;;;;;;2.37;1.13;;;;;;;;;;5487941;26;20007;-57
2024/04/18 12:11:26;;;;;;;4.20;2.20;;;;;;;;;;5511000;26;19994;-58
2024/04/18 12:14:09;;;;;;;3.47;0.87;;;;;;;;;;5511602;26;19994;-58
2024/04/18 12:16:52;;;;;;;5.73;1.53;;;;;;;;;;5511313;26;20020;-56
2024/04/18 12:19:17;;;;;;;;;;;;;;;;;;5512386;26;19990;-58
2024/04/18 12:21:43;;;;;;;3.05;1.02;;;;;;;;;;5510602;26;19931;-60
2024/04/18 12:24:08;;;;;;;5.70;0.90;;;;;;;;;;5510665;26;19990;-58
2024/04/18 12:26:35;;;;;;;7.95;1.05;;;;;;;;;;5510191;26;20005;-56
2024/04/18 12:29:01;;;;;;;2.22;0.95;;;;;;;;;;5511409;26;19991;-59
2024/04/18 12:31:26;;;;;;;6.20;1.13;;;;;;;;;;5508707;26;20036;-58
2024/04/18 12:33:52;;;;;;;4.30;1.00;;;;;;;;;;5511981;26;19998;-58
2024/04/18 12:36:20;;;;;;;8.02;1.30;;;;;;;;;;5510905;26;19990;-57
2024/04/18 12:38:46;;;;;;;5.93;1.13;;;;;;;;;;5511519;26;20047;-59
2024/04/18 12:41:11;;;;;;;;;;;;;;;;;;5511291;26;19990;-57
2024/04/18 12:43:37;;;;;;;2.67;1.07;;;;;;;;;;5510944;26;19969;-58
2024/04/18 12:46:24;;;;;;;4.80;2.07;;;;;;;;;;5486213;26;20013;-58
2024/04/18 12:48:53;;;;;;;5.00;1.37;;;;;;;;;;5511469;26;20006;-56
2024/04/18 12:51:19;;;;;;;7.27;1.27;;;;;;;;;;5510452;26;20017;-56
2024/04/18 12:53:45;;;;;;;5.57;1.67;;;;;;;;;;5510007;26;19990;-58
2024/04/18 12:56:11;;;;;;;2.97;1.37;;;;;;;;;;5510205;26;20048;-57
2024/04/18 12:58:40;;;;;;;6.53;1.30;;;;;;;;;;5510941;26;20091;-58
2024/04/18 13:01:05;;;;;;;3.13;0.80;;;;;;;;;;5510018;26;19998;-59
2024/04/18 13:03:37;;;;;;;3.90;1.80;;;;;;;;;;5510649;26;20012;-59
2024/04/18 13:06:24;;;;;;;3.57;1.13;;;;;;;;;;5502465;26;20013;-60
2024/04/18 13:08:50;;;;;;;3.63;1.10;;;;;;;;;;5510919;26;20009;-60
2024/04/18 13:11:36;;;;;;;5.38;0.95;;;;;;;;;;5510298;26;20078;-60
2024/04/18 13:14:04;;;;;;;4.13;0.73;;;;;;;;;;5510453;26;20002;-60
2024/04/18 13:16:30;;;;;;;3.75;0.70;;;;;;;;;;5510288;26;20028;-59
2024/04/18 13:19:08;;;;;;;5.20;1.02;;;;;;;;;;5486717;26;20010;-59
2024/04/18 13:21:37;;;;;;;3.92;0.80;;;;;;;;;;5509595;26;20051;-58
2024/04/18 13:24:03;;;;;;;3.00;0.80;;;;;;;;;;5510009;26;19998;-59
2024/04/18 13:26:47;;;;;;;5.72;0.90;;;;;;;;;;5510310;26;20043;-59
2024/04/18 13:29:15;;;;;;;3.38;0.93;;;;;;;;;;5510352;26;19998;-59
2024/04/18 13:31:43;;;;;;;7.22;0.90;;;;;;;;;;5509612;26;20006;-59
2024/04/18 13:34:20;;;;;;;1.13;0.55;;;;;;;;;;5510489;26;19994;-58
2024/04/18 13:36:46;;;;;;;2.58;1.20;;;;;;;;;;5509872;26;19998;-59
2024/04/18 13:39:12;;;;;;;;;;;;;;;;;;5511005;26;19998;-57
2024/04/18 13:41:42;;;;;;;8.77;2.90;;;;;;;;;;5476577;26;19924;-57
2024/04/18 13:44:14;;;;;;;3.37;0.97;;;;;;;;;;5499034;26;20040;-59
2024/04/18 13:46:40;;;;;;;;;;;;;;;;;;5510277;26;20012;-59
2024/04/18 13:49:06;;;;;;;5.23;0.97;;;;;;;;;;5510074;26;19925;-59
2024/04/18 13:51:31;;;;;;;5.53;0.80;;;;;;;;;;5509766;26;20009;-55
2024/04/18 13:53:57;;;;;;;1.80;0.50;;;;;;;;;;5510037;26;20030;-58
2024/04/18 13:56:25;;;;;;;4.20;0.82;;;;;;;;;;5509330;26;20013;-55
2024/04/18 13:59:06;;;;;;;2.27;0.70;;;;;;;;;;5509598;26;20009;-56
2024/04/18 14:01:52;;;;;;;4.80;1.83;;;;;;;;;;5501797;26;20007;-59
2024/04/18 14:04:37;;;;;;;4.53;1.23;;;;;;;;;;5497066;26;19998;-57
2024/04/18 14:07:18;;;;;;;10.20;1.53;;;;;;;;;;5509100;26;19994;-56
2024/04/18 14:09:45;;;;;;;4.30;0.90;;;;;;;;;;5485171;26;19995;-58
2024/04/18 14:12:10;;;;;;;6.45;1.58;;;;;;;;;;5509233;26;19998;-56
2024/04/18 14:14:36;;;;;;;;;;;;;;;;;;5510190;26;20005;-53
2024/04/18 14:20:02;;;;;;;1.63;0.67;;;;;;;;;;5486238;26;20018;-60
2024/04/18 14:22:28;;;;;;;4.57;0.97;;;;;;;;;;5509231;26;20012;-56
2024/04/18 14:24:54;;;;;;;5.73;1.47;;;;;;;;;;5508477;26;19990;-59
2024/04/18 14:27:32;;;;;;;54.70;16.93;;;;;;;;;;5508899;26;20042;-54
2024/04/18 14:29:57;;;;;;;3.60;0.52;;;;;;;;;;5507953;26;19998;-57
2024/04/18 14:32:31;;;;;;;6.67;1.10;;;;;;;;;;5509237;26;20051;-58
2024/04/18 14:35:01;;;;;;;7.03;1.40;;;;;;;;;;5509150;26;20009;-57
2024/04/18 14:37:28;;;;;;;6.60;1.50;;;;;;;;;;5508854;26;19994;-57
2024/04/18 14:39:53;;;;;;;0.95;0.55;;;;;;;;;;5509387;26;20005;-58
2024/04/18 14:42:19;;;;;;;5.85;1.52;;;;;;;;;;5508825;26;19994;-57
2024/04/18 14:44:45;;;;;;;2.85;0.82;;;;;;;;;;5508253;26;20021;-58
2024/04/18 14:47:13;;;;;;;3.07;1.07;;;;;;;;;;5509457;26;19994;-56
2024/04/18 14:49:54;;;;;;;3.70;0.90;;;;;;;;;;5509270;26;20013;-56
2024/04/18 14:52:34;;;;;;;3.07;1.30;;;;;;;;;;5506984;26;20074;-53
2024/04/18 14:55:20;;;;;;;3.72;0.77;;;;;;;;;;5507192;26;19991;-55
2024/04/18 14:57:45;;;;;;;3.60;0.90;;;;;;;;;;5504363;26;20046;-57
2024/04/18 15:00:17;;;;;;;5.70;1.40;;;;;;;;;;5508972;26;20013;-58
2024/04/18 15:02:42;;;;;;;5.78;1.02;;;;;;;;;;5508684;26;20002;-56
2024/04/18 15:05:07;;;;;;;0.77;0.55;;;;;;;;;;5503286;26;19998;-55
2024/04/18 15:07:53;;;;;;;1.53;0.83;;;;;;;;;;5486526;26;20005;-59